Time;durP1;ratioP1;P1;durP2;ratioP2;P2;SDS_P1;SDS_P2;PMS_P1;PMS_P2;Temp;Humidity;BMP_temperature;BMP_pressure;BME280_temperature;BME280_humidity;BME280_pressure;Samples;Min_cycle;Max_cycle;Signal;HPM_P1;HPM_P2
2022/01/02 00:00:19;;;;;;;27.48;16.50;;;;;;;7.29;93.68;99864.44;1817509;79;21522;-41
2022/01/02 00:02:58;;;;;;;27.80;14.65;;;;;;;7.25;93.75;99858.03;1817458;79;21494;-41
2022/01/02 00:05:24;;;;;;;23.55;13.32;;;;;;;7.26;93.54;99851.45;1817490;79;20998;-40
2022/01/02 00:08:03;;;;;;;24.23;13.55;;;;;;;7.16;93.53;99851.33;1817450;79;21034;-40
2022/01/02 00:10:33;;;;;;;24.37;13.50;;;;;;;7.11;93.60;99855.42;1817443;79;21088;-40
2022/01/02 00:13:02;;;;;;;22.20;13.03;;;;;;;7.09;93.86;99855.05;1817466;79;20991;-40
2022/01/02 00:15:28;;;;;;;21.05;12.78;;;;;;;7.12;94.05;99853.66;1817430;79;20990;-41
2022/01/02 00:17:57;;;;;;;22.62;12.23;;;;;;;7.11;93.96;99853.23;1817454;79;20963;-40
2022/01/02 00:20:32;;;;;;;22.55;13.05;;;;;;;7.10;93.82;99854.16;1817519;79;20990;-41
2022/01/02 00:22:54;;;;;;;20.45;12.33;;;;;;;7.11;93.80;99853.23;1816680;79;21018;-40
2022/01/02 00:25:28;;;;;;;23.27;13.25;;;;;;;7.09;93.88;99855.92;1817493;79;21441;-41
2022/01/02 00:27:53;;;;;;;22.48;13.28;;;;;;;7.09;93.82;99858.97;1816906;79;21571;-41
2022/01/02 00:30:19;;;;;;;23.52;13.68;;;;;;;7.11;93.92;99857.16;1816398;79;21077;-40
2022/01/02 00:32:45;;;;;;;24.35;13.32;;;;;;;7.11;93.97;99857.16;1816510;79;20995;-40
2022/01/02 00:35:12;;;;;;;26.33;13.18;;;;;;;7.10;93.97;99856.77;1816224;79;21043;-40
2022/01/02 00:37:40;;;;;;;22.95;12.40;;;;;;;7.13;94.06;99857.99;1817586;79;21025;-40
2022/01/02 00:40:07;;;;;;;22.58;12.15;;;;;;;7.17;94.00;99854.80;1817187;79;20994;-40
2022/01/02 00:42:40;;;;;;;20.93;11.23;;;;;;;7.14;93.86;99849.69;1817831;79;20979;-41
2022/01/02 00:45:25;;;;;;;21.10;12.85;;;;;;;7.14;93.63;99842.69;1817441;79;20947;-41
2022/01/02 00:48:09;;;;;;;19.60;11.68;;;;;;;7.10;93.79;99834.55;1817447;79;20983;-41
2022/01/02 00:50:48;;;;;;;19.20;11.65;;;;;;;7.06;93.87;99836.40;1816517;79;20955;-42
2022/01/02 00:53:18;;;;;;;17.82;10.65;;;;;;;7.00;93.91;99834.42;1817351;79;20999;-41
2022/01/02 00:55:52;;;;;;;20.27;11.78;;;;;;;6.96;93.86;99832.36;1817526;79;21034;-40
2022/01/02 00:58:19;;;;;;;17.25;10.45;;;;;;;6.90;94.07;99837.80;1816930;79;20951;-41
2022/01/02 01:00:51;;;;;;;16.70;11.60;;;;;;;6.83;94.30;99831.89;1817622;79;21312;-41
2022/01/02 01:03:27;;;;;;;19.55;11.90;;;;;;;6.87;94.47;99833.50;1817523;79;20959;-41
2022/01/02 01:05:55;;;;;;;18.40;11.10;;;;;;;6.92;94.45;99834.67;1815810;79;20974;-41
2022/01/02 01:08:23;;;;;;;19.55;10.78;;;;;;;6.92;94.42;99830.75;1817387;79;21336;-40
2022/01/02 01:10:50;;;;;;;15.72;10.70;;;;;;;6.94;94.35;99826.79;1817398;79;20979;-41
2022/01/02 01:13:18;;;;;;;17.67;10.75;;;;;;;6.90;94.61;99826.88;1817690;79;20986;-40
2022/01/02 01:15:44;;;;;;;15.48;9.35;;;;;;;6.91;94.64;99820.76;1817528;79;20982;-41
2022/01/02 01:18:10;;;;;;;16.17;10.05;;;;;;;6.88;94.47;99819.53;1817401;79;20995;-40
2022/01/02 01:20:41;;;;;;;15.37;9.50;;;;;;;6.91;94.43;99806.38;1817687;79;20991;-40
2022/01/02 01:23:12;;;;;;;16.85;9.88;;;;;;;6.88;94.38;99803.00;1817693;79;20971;-41
2022/01/02 01:25:39;;;;;;;16.17;10.23;;;;;;;6.84;94.50;99797.02;1817078;79;20983;-40
2022/01/02 01:28:04;;;;;;;;;;;;;;;6.85;94.59;99796.09;1820119;79;20998;-41
2022/01/02 01:30:30;;;;;;;13.95;9.05;;;;;;;6.85;94.83;99792.63;1817473;79;20580;-41
2022/01/02 01:32:56;;;;;;;16.73;9.90;;;;;;;6.89;94.79;99791.62;1817415;79;20951;-41
2022/01/02 01:35:23;;;;;;;12.25;8.98;;;;;;;6.90;94.82;99787.66;1817557;79;21456;-40
2022/01/02 01:37:49;;;;;;;13.10;9.28;;;;;;;6.91;94.83;99777.61;1817642;79;20982;-40
2022/01/02 01:40:17;;;;;;;13.60;9.78;;;;;;;6.96;94.84;99772.22;1817598;79;20979;-40
2022/01/02 01:42:56;;;;;;;13.95;9.25;;;;;;;6.99;94.62;99768.67;1817324;79;21422;-40
2022/01/02 01:48:00;;;;;;;19.32;11.03;;;;;;;7.03;94.68;99754.11;1817600;79;20971;-40
2022/01/02 01:50:41;;;;;;;14.45;10.08;;;;;;;7.00;94.56;99759.90;1817483;79;21010;-40
2022/01/02 01:53:09;;;;;;;16.05;9.78;;;;;;;7.00;94.51;99759.90;1817355;79;20983;-41
2022/01/02 01:55:36;;;;;;;;;;;;;;;7.01;94.44;99760.31;1820111;79;21727;-40
2022/01/02 01:58:05;;;;;;;19.57;10.93;;;;;;;7.02;94.46;99747.63;1817548;79;20098;-41
2022/01/02 02:00:33;;;;;;;16.73;11.33;;;;;;;7.01;94.51;99743.31;1817417;79;21496;-41
2022/01/02 02:03:00;;;;;;;19.65;11.90;;;;;;;7.01;94.50;99728.94;1817473;79;21015;-41
2022/01/02 02:05:26;;;;;;;20.97;12.40;;;;;;;6.94;94.45;99725.66;1817669;79;21511;-40
2022/01/02 02:07:52;;;;;;;19.10;11.50;;;;;;;6.99;94.47;99729.45;1817347;79;20978;-40
2022/01/02 02:10:27;;;;;;;22.98;13.00;;;;;;;7.04;94.50;99734.92;1817388;79;20973;-41
2022/01/02 02:12:55;;;;;;;21.00;12.98;;;;;;;6.99;94.41;99734.67;1817136;79;20986;-40
2022/01/02 02:15:22;;;;;;;23.77;13.55;;;;;;;7.01;94.48;99728.94;1817451;79;20978;-40
2022/01/02 02:17:50;;;;;;;26.63;13.83;;;;;;;7.01;94.73;99726.32;1817751;79;21014;-41
2022/01/02 02:20:23;;;;;;;22.05;13.43;;;;;;;7.01;94.74;99728.47;1817353;79;21138;-41
2022/01/02 02:22:53;;;;;;;27.25;15.40;;;;;;;7.01;94.75;99726.32;1817479;79;21115;-41
2022/01/02 02:25:23;;;;;;;31.20;16.23;;;;;;;7.01;94.76;99725.02;1817412;79;21002;-41
2022/01/02 02:27:53;;;;;;;29.67;16.85;;;;;;;6.90;94.71;99723.60;1817468;79;20975;-41
2022/01/02 02:30:20;;;;;;;28.57;16.57;;;;;;;6.91;94.81;99730.55;1817480;79;20976;-41
2022/01/02 02:32:46;;;;;;;29.57;16.77;;;;;;;6.94;94.78;99727.43;1817640;79;20974;-41
2022/01/02 02:35:14;;;;;;;28.47;16.63;;;;;;;6.95;94.95;99719.97;1817659;79;21045;-41
2022/01/02 02:37:43;;;;;;;29.00;16.80;;;;;;;6.95;94.95;99723.89;1817577;79;21433;-41
2022/01/02 02:43:23;;;;;;;27.48;16.77;;;;;;;6.92;95.12;99715.25;1731320;81;21102;-41
2022/01/02 02:51:23;;;;;;;34.67;18.80;;;;;;;6.92;95.27;99691.72;1736618;83;20971;-41
2022/01/02 02:53:49;;;;;;;;;;;;;;;6.94;95.38;99687.75;1738789;82;21002;-41
2022/01/02 02:58:43;;;;;;;35.83;18.37;;;;;;;6.92;95.61;99686.48;1736871;82;20971;-41
2022/01/02 03:01:14;;;;;;;38.67;19.02;;;;;;;6.91;95.78;99683.49;1736885;82;21041;-40
2022/01/02 03:03:42;;;;;;;32.30;17.67;;;;;;;6.95;95.74;99684.67;1737002;82;21002;-41
2022/01/02 03:06:08;;;;;;;33.30;17.35;;;;;;;6.98;95.95;99674.13;1736901;82;21515;-41
2022/01/02 03:08:36;;;;;;;39.13;18.32;;;;;;;6.96;96.24;99680.70;1736779;82;21006;-42
2022/01/02 03:11:03;;;;;;;;;;;;;;;6.95;96.46;99667.68;1739314;82;21066;-41
2022/01/02 03:13:29;;;;;;;;;;;;;;;6.97;96.49;99660.63;1739499;82;20148;-39
2022/01/02 03:15:54;;;;;;;35.45;18.62;;;;;;;6.95;96.65;99649.38;1736837;82;20100;-39
2022/01/02 03:18:20;;;;;;;42.38;20.50;;;;;;;6.99;96.73;99649.69;1736770;82;21005;-40
2022/01/02 03:20:46;;;;;;;41.58;19.12;;;;;;;7.01;96.65;99648.72;1736761;82;20986;-40
2022/01/02 03:23:12;;;;;;;38.17;19.25;;;;;;;7.02;96.69;99645.64;1736815;82;21002;-41
2022/01/02 03:25:38;;;;;;;39.90;19.50;;;;;;;7.04;96.71;99650.36;1736706;82;20992;-40
2022/01/02 03:28:04;;;;;;;41.05;19.48;;;;;;;7.03;96.87;99659.13;1736749;82;21006;-40
2022/01/02 03:30:29;;;;;;;45.55;19.20;;;;;;;7.07;96.61;99658.11;1736680;82;21010;-40
2022/01/02 03:32:55;;;;;;;45.58;20.30;;;;;;;7.03;96.85;99652.59;1736765;82;20980;-40
2022/01/02 03:35:21;;;;;;;44.38;19.85;;;;;;;7.03;96.98;99655.20;1736805;82;21006;-45
2022/01/02 03:37:47;;;;;;;40.17;20.23;;;;;;;7.04;96.88;99649.05;1736707;82;21002;-41
2022/01/02 03:40:13;;;;;;;41.63;19.42;;;;;;;7.03;97.00;99650.82;1736846;82;20994;-40
2022/01/02 03:42:39;;;;;;;42.70;21.40;;;;;;;7.01;97.21;99642.19;1730132;82;21583;-41
2022/01/02 03:45:06;;;;;;;40.73;20.00;;;;;;;7.03;97.27;99640.83;1724873;83;21002;-40
2022/01/02 03:47:32;;;;;;;41.50;19.48;;;;;;;6.97;97.72;99637.09;1724689;82;20999;-40
2022/01/02 03:49:58;;;;;;;43.65;21.12;;;;;;;7.00;97.57;99631.77;1724603;83;21007;-40
2022/01/02 03:52:25;;;;;;;59.23;21.15;;;;;;;6.98;97.91;99626.59;1724530;83;20991;-40
2022/01/02 03:54:51;;;;;;;44.00;20.97;;;;;;;7.02;98.00;99620.80;1724750;82;20987;-40
2022/01/02 03:57:17;;;;;;;41.45;20.30;;;;;;;7.05;97.83;99616.31;1724526;83;21026;-40
2022/01/02 03:59:43;;;;;;;50.95;21.33;;;;;;;7.06;97.91;99609.34;1724536;82;20999;-40
2022/01/02 04:02:09;;;;;;;42.75;20.65;;;;;;;7.06;98.07;99614.58;1724536;83;20998;-40
2022/01/02 04:04:35;;;;;;;47.73;20.85;;;;;;;7.11;97.89;99604.78;1724584;83;20994;-40
2022/01/02 04:07:00;;;;;;;47.62;21.60;;;;;;;7.05;98.34;99596.70;1724631;82;21476;-41
2022/01/02 04:09:26;;;;;;;52.70;20.90;;;;;;;7.10;98.03;99602.63;1724539;83;20984;-40
2022/01/02 04:11:52;;;;;;;51.23;20.23;;;;;;;7.12;97.94;99598.66;1724502;82;21027;-40
2022/01/02 04:14:18;;;;;;;53.80;21.95;;;;;;;7.11;98.15;99589.09;1724746;82;20968;-40
2022/01/02 04:16:44;;;;;;;41.33;20.80;;;;;;;7.15;98.11;99590.70;1724502;83;21003;-41
2022/01/02 04:19:09;;;;;;;49.73;20.75;;;;;;;7.18;98.02;99581.42;1724654;83;20998;-41
2022/01/02 04:21:35;;;;;;;52.38;21.93;;;;;;;7.18;98.09;99576.19;1724501;83;21535;-40
2022/01/02 04:24:01;;;;;;;51.37;21.27;;;;;;;7.22;97.99;99571.27;1724617;82;21481;-40
2022/01/02 04:26:27;;;;;;;58.13;21.97;;;;;;;7.23;98.08;99563.80;1724564;83;21052;-40
2022/01/02 04:28:53;;;;;;;46.83;21.57;;;;;;;7.19;98.48;99556.98;1724523;83;21027;-40
2022/01/02 04:31:19;;;;;;;48.90;20.97;;;;;;;7.21;98.59;99553.01;1724493;82;21002;-40
2022/01/02 04:33:45;;;;;;;57.10;20.85;;;;;;;7.23;98.68;99548.10;1724667;82;21002;-40
2022/01/02 04:36:10;;;;;;;43.20;21.52;;;;;;;7.26;98.69;99534.92;1724492;83;21464;-41
2022/01/02 04:38:37;;;;;;;39.63;20.25;;;;;;;7.31;98.82;99526.88;1724492;82;21042;-41
2022/01/02 04:41:03;;;;;;;50.30;21.37;;;;;;;7.30;99.12;99523.42;1724623;83;21487;-41
2022/01/02 04:43:30;;;;;;;46.58;20.35;;;;;;;7.34;99.08;99511.08;1722629;82;21034;-41
2022/01/02 04:45:58;;;;;;;47.35;20.95;;;;;;;7.36;99.14;99507.09;1721931;83;21046;-41
2022/01/02 04:48:24;;;;;;;48.40;21.73;;;;;;;7.40;99.07;99506.05;1721899;83;21006;-41
2022/01/02 04:50:50;;;;;;;47.43;20.17;;;;;;;7.42;99.23;99510.34;1721887;82;21496;-41
2022/01/02 04:53:16;;;;;;;41.28;21.05;;;;;;;7.45;99.30;99510.66;1721980;82;21518;-41
2022/01/02 04:55:43;;;;;;;51.63;21.27;;;;;;;7.49;99.54;99497.84;1721917;83;21002;-41
2022/01/02 04:58:09;;;;;;;46.73;21.25;;;;;;;7.50;99.74;99489.09;1721907;82;21037;-41
2022/01/02 05:00:35;;;;;;;53.90;21.33;;;;;;;7.51;99.84;99488.16;1722006;83;21002;-41
2022/01/02 05:03:00;;;;;;;42.65;20.48;;;;;;;7.53;99.75;99477.21;1721918;83;21566;-41
2022/01/02 05:05:26;;;;;;;41.35;19.20;;;;;;;7.59;99.57;99470.88;1721898;82;21460;-41
2022/01/02 05:07:52;;;;;;;40.78;19.80;;;;;;;7.63;99.62;99467.21;1722133;83;21504;-41
2022/01/02 05:10:18;;;;;;;42.62;18.67;;;;;;;7.63;99.99;99464.59;1722118;82;21065;-41
2022/01/02 05:12:43;;;;;;;45.00;19.67;;;;;;;7.66;100.00;99457.94;1721873;82;21010;-40
2022/01/02 05:15:10;;;;;;;34.92;19.15;;;;;;;7.65;100.00;99458.38;1721908;82;20987;-40
2022/01/02 05:17:36;;;;;;;36.42;19.25;;;;;;;7.66;100.00;99459.25;1721869;82;21002;-40
2022/01/02 05:20:03;;;;;;;38.55;19.82;;;;;;;7.72;100.00;99458.98;1721882;82;21613;-40
2022/01/02 05:22:29;;;;;;;46.92;21.05;;;;;;;7.75;100.00;99457.99;1722070;83;20998;-40
2022/01/02 05:24:55;;;;;;;40.55;18.12;;;;;;;7.79;100.00;99460.44;1721960;83;21050;-40
2022/01/02 05:27:21;;;;;;;35.05;18.75;;;;;;;7.82;100.00;99455.52;1721941;83;21002;-40
2022/01/02 05:29:46;;;;;;;34.15;18.67;;;;;;;7.86;100.00;99445.34;1722066;82;20983;-40
2022/01/02 05:32:12;;;;;;;31.95;18.05;;;;;;;7.88;100.00;99440.88;1721840;83;21010;-40
2022/01/02 05:34:38;;;;;;;38.65;18.17;;;;;;;7.92;100.00;99437.67;1721841;82;21003;-41
2022/01/02 05:37:04;;;;;;;29.52;17.77;;;;;;;7.94;100.00;99441.92;1721911;82;21002;-40
2022/01/02 05:39:30;;;;;;;27.10;16.48;;;;;;;7.96;100.00;99434.84;1721886;83;21003;-41
2022/01/02 05:41:55;;;;;;;32.78;17.60;;;;;;;8.05;100.00;99429.69;1722038;82;21087;-41
2022/01/02 05:44:21;;;;;;;32.35;16.93;;;;;;;8.04;100.00;99421.42;1726574;83;20983;-41
2022/01/02 05:46:47;;;;;;;31.10;17.02;;;;;;;8.05;100.00;99421.36;1726654;83;21003;-40
2022/01/02 05:49:14;;;;;;;29.87;16.70;;;;;;;8.11;100.00;99420.70;1726569;83;21046;-40
2022/01/02 05:51:41;;;;;;;30.00;17.75;;;;;;;8.16;100.00;99426.14;1726677;83;21002;-40
2022/01/02 05:54:08;;;;;;;31.20;16.70;;;;;;;8.18;100.00;99411.20;1726584;83;21519;-41
2022/01/02 05:56:34;;;;;;;36.85;16.20;;;;;;;8.17;100.00;99409.98;1726928;83;20998;-41
2022/01/02 05:59:00;;;;;;;32.13;18.07;;;;;;;8.23;100.00;99407.93;1726479;83;21007;-40
2022/01/02 06:01:26;;;;;;;26.33;16.07;;;;;;;8.26;100.00;99397.33;1726534;83;21002;-40
2022/01/02 06:03:52;;;;;;;30.37;17.00;;;;;;;8.27;100.00;99390.30;1726471;83;21010;-40
2022/01/02 06:06:18;;;;;;;31.20;17.77;;;;;;;8.31;100.00;99389.71;1726491;83;20995;-40
2022/01/02 06:08:44;;;;;;;32.25;17.48;;;;;;;8.33;100.00;99393.98;1726696;83;21002;-40
2022/01/02 06:11:10;;;;;;;36.68;17.52;;;;;;;8.33;100.00;99390.05;1726482;83;20995;-40
2022/01/02 06:13:36;;;;;;;34.38;16.85;;;;;;;8.35;100.00;99386.03;1726518;83;21011;-41
2022/01/02 06:16:02;;;;;;;33.75;18.37;;;;;;;8.34;100.00;99383.87;1726505;83;21049;-43
2022/01/02 06:18:28;;;;;;;35.58;17.17;;;;;;;8.37;100.00;99374.58;1726465;83;20983;-41
2022/01/02 06:20:54;;;;;;;29.95;17.62;;;;;;;8.35;100.00;99367.25;1726505;83;21011;-40
2022/01/02 06:23:20;;;;;;;34.55;17.77;;;;;;;8.29;100.00;99356.19;1726630;83;21006;-41
2022/01/02 06:25:46;;;;;;;29.63;17.60;;;;;;;8.32;100.00;99339.87;1726552;83;21475;-40
2022/01/02 06:28:13;;;;;;;34.58;17.73;;;;;;;8.33;100.00;99344.20;1726526;83;21506;-40
2022/01/02 06:30:38;;;;;;;26.97;16.27;;;;;;;8.35;100.00;99341.05;1726729;83;20967;-40
2022/01/02 06:33:04;;;;;;;33.35;16.95;;;;;;;8.34;100.00;99337.19;1726577;83;21005;-40
2022/01/02 06:35:32;;;;;;;29.45;16.62;;;;;;;8.34;100.00;99332.78;1726695;83;21006;-40
2022/01/02 06:38:00;;;;;;;37.08;16.52;;;;;;;8.30;100.00;99331.23;1726665;83;21057;-40
2022/01/02 06:40:27;;;;;;;27.75;16.93;;;;;;;8.36;100.00;99328.78;1726780;83;21037;-41
2022/01/02 06:42:53;;;;;;;29.07;16.57;;;;;;;8.15;100.00;99326.22;1726195;83;21030;-40
2022/01/02 06:45:19;;;;;;;33.00;16.60;;;;;;;8.27;100.00;99324.81;1724669;82;21046;-41
2022/01/02 06:47:45;;;;;;;33.88;16.07;;;;;;;8.24;100.00;99320.57;1724562;82;21051;-41
2022/01/02 06:50:12;;;;;;;30.20;16.87;;;;;;;8.31;100.00;99322.90;1724601;83;21522;-40
2022/01/02 06:52:39;;;;;;;32.28;16.12;;;;;;;8.30;100.00;99318.13;1725016;83;21031;-41
2022/01/02 06:55:06;;;;;;;31.27;16.02;;;;;;;8.33;100.00;99324.55;1724735;83;21002;-40
2022/01/02 06:57:32;;;;;;;30.55;16.37;;;;;;;8.32;100.00;99320.69;1724678;83;21007;-41
2022/01/02 06:59:58;;;;;;;26.73;15.15;;;;;;;8.32;100.00;99324.61;1724539;83;21007;-41
2022/01/02 07:02:24;;;;;;;29.25;15.48;;;;;;;8.28;100.00;99321.28;1724650;83;21448;-40
2022/01/02 07:04:49;;;;;;;34.18;17.42;;;;;;;8.30;100.00;99319.44;1724710;83;20987;-41
2022/01/02 07:07:15;;;;;;;31.75;17.55;;;;;;;8.30;100.00;99315.51;1724561;82;20967;-40
2022/01/02 07:09:41;;;;;;;30.30;16.62;;;;;;;8.32;100.00;99307.11;1724542;83;20983;-41
2022/01/02 07:12:07;;;;;;;33.05;17.32;;;;;;;8.31;100.00;99307.18;1724533;83;20963;-41
2022/01/02 07:14:33;;;;;;;31.25;17.55;;;;;;;8.31;100.00;99294.92;1724531;83;20998;-41
2022/01/02 07:16:59;;;;;;;39.45;19.77;;;;;;;8.30;100.00;99290.62;1724661;83;21522;-41
2022/01/02 07:19:26;;;;;;;36.65;18.70;;;;;;;8.27;100.00;99283.73;1724562;82;21034;-41
2022/01/02 07:21:53;;;;;;;34.80;19.10;;;;;;;8.26;100.00;99277.28;1724546;82;21481;-41
2022/01/02 07:24:19;;;;;;;34.58;18.25;;;;;;;8.26;100.00;99283.83;1724675;82;21530;-41
2022/01/02 07:26:46;;;;;;;31.48;16.87;;;;;;;8.27;100.00;99279.80;1724812;83;21503;-40
2022/01/02 07:29:15;;;;;;;29.98;17.77;;;;;;;8.23;100.00;99273.48;1724474;83;21499;-41
2022/01/02 07:31:40;;;;;;;31.90;17.17;;;;;;;8.26;100.00;99268.11;1724372;82;20983;-40
2022/01/02 07:34:05;;;;;;;32.15;17.90;;;;;;;8.27;100.00;99268.48;1724598;83;21527;-40
2022/01/02 07:36:31;;;;;;;30.48;17.35;;;;;;;8.30;100.00;99263.58;1724600;83;21002;-40
2022/01/02 07:38:57;;;;;;;31.20;18.37;;;;;;;8.27;100.00;99259.31;1724549;82;20999;-41
2022/01/02 07:41:23;;;;;;;33.70;17.48;;;;;;;8.26;100.00;99251.92;1724524;82;21038;-41
2022/01/02 07:43:49;;;;;;;34.67;19.25;;;;;;;8.26;100.00;99253.70;1715027;82;21019;-41
2022/01/02 07:46:15;;;;;;;34.13;19.85;;;;;;;8.31;100.00;99260.02;1708388;84;21011;-41
2022/01/02 07:48:41;;;;;;;39.15;21.40;;;;;;;8.31;100.00;99258.70;1708503;84;21043;-40
2022/01/02 07:51:07;;;;;;;34.10;17.30;;;;;;;8.33;100.00;99253.80;1708531;84;21516;-40
2022/01/02 07:53:33;;;;;;;31.95;16.87;;;;;;;8.30;100.00;99243.45;1708427;83;21019;-40
2022/01/02 07:55:59;;;;;;;30.27;17.20;;;;;;;8.34;100.00;99242.86;1708407;83;21035;-41
2022/01/02 07:58:25;;;;;;;30.52;16.85;;;;;;;8.35;100.00;99238.86;1708523;83;21004;-41
2022/01/02 08:00:50;;;;;;;30.43;16.45;;;;;;;8.34;100.00;99231.91;1708439;84;21516;-41
2022/01/02 08:03:17;;;;;;;28.30;17.48;;;;;;;8.39;100.00;99219.44;1708482;84;21038;-41
2022/01/02 08:05:43;;;;;;;26.95;15.48;;;;;;;8.43;99.96;99214.94;1708419;84;20968;-40
2022/01/02 08:08:09;;;;;;;29.70;16.73;;;;;;;8.41;99.80;99211.51;1708366;84;21003;-41
2022/01/02 08:10:40;;;;;;;27.15;15.75;;;;;;;8.45;99.65;99203.91;1708226;84;21012;-41
2022/01/02 08:13:06;;;;;;;26.97;15.75;;;;;;;8.44;99.48;99199.14;1708395;83;21043;-41
2022/01/02 08:15:32;;;;;;;27.20;14.65;;;;;;;8.50;99.36;99187.98;1708427;84;21003;-41
2022/01/02 08:17:58;;;;;;;21.40;14.55;;;;;;;8.43;99.19;99186.95;1708418;84;20988;-40
2022/01/02 08:20:24;;;;;;;28.45;16.35;;;;;;;8.53;99.17;99178.20;1708405;83;21654;-41
2022/01/02 08:22:50;;;;;;;28.38;14.80;;;;;;;8.54;98.98;99175.11;1708796;83;21011;-41
2022/01/02 08:25:16;;;;;;;26.17;13.85;;;;;;;8.61;98.94;99173.89;1708285;84;21004;-41
2022/01/02 08:27:42;;;;;;;26.62;13.70;;;;;;;8.65;98.69;99169.71;1708387;84;21008;-41
2022/01/02 08:30:09;;;;;;;28.05;15.48;;;;;;;8.68;98.28;99173.10;1708392;83;21059;-41
2022/01/02 08:32:34;;;;;;;28.52;14.75;;;;;;;8.75;98.15;99176.68;1708474;84;21008;-41
2022/01/02 08:35:00;;;;;;;25.75;14.55;;;;;;;8.83;97.87;99176.29;1708413;84;21143;-41
2022/01/02 08:37:26;;;;;;;29.57;15.85;;;;;;;8.87;97.55;99174.36;1708505;83;21015;-41
2022/01/02 08:39:52;;;;;;;26.25;14.87;;;;;;;8.95;97.50;99171.75;1708376;84;20964;-41
2022/01/02 08:42:18;;;;;;;25.95;14.28;;;;;;;9.03;97.42;99179.22;1708376;84;21020;-41
2022/01/02 08:44:44;;;;;;;30.45;14.53;;;;;;;9.00;96.95;99178.92;1708352;84;21027;-41
2022/01/02 08:47:11;;;;;;;31.40;14.68;;;;;;;8.92;96.36;99168.43;1708416;83;21016;-41
2022/01/02 08:49:37;;;;;;;25.43;14.75;;;;;;;9.00;96.26;99167.56;1708597;84;21505;-41
2022/01/02 08:52:03;;;;;;;29.45;14.85;;;;;;;9.03;95.99;99168.73;1708406;84;21505;-41
2022/01/02 08:54:29;;;;;;;28.30;16.07;;;;;;;9.10;96.41;99160.94;1708229;84;21011;-42
2022/01/02 08:56:55;;;;;;;21.75;12.95;;;;;;;9.09;95.66;99168.41;1708461;83;21493;-41
2022/01/02 08:59:27;;;;;;;23.25;13.18;;;;;;;9.10;95.03;99170.11;1708465;84;21473;-41
2022/01/02 09:01:51;;;;;;;23.92;12.55;;;;;;;9.16;95.45;99168.48;1708298;83;21003;-41
2022/01/02 09:04:17;;;;;;;22.02;12.35;;;;;;;9.14;94.65;99159.00;1708384;84;20988;-41
2022/01/02 09:06:43;;;;;;;24.18;12.63;;;;;;;9.13;94.50;99158.16;1708282;84;20996;-41
2022/01/02 09:09:09;;;;;;;27.55;12.20;;;;;;;9.16;94.25;99155.36;1708440;84;21540;-41
2022/01/02 09:11:35;;;;;;;25.15;13.10;;;;;;;9.11;93.66;99142.09;1708447;84;20996;-41
2022/01/02 09:14:02;;;;;;;25.60;11.68;;;;;;;9.22;93.84;99145.00;1708367;84;21042;-41
2022/01/02 09:16:29;;;;;;;24.43;12.63;;;;;;;9.22;93.55;99144.56;1708806;83;21012;-41
2022/01/02 09:18:55;;;;;;;27.25;12.40;;;;;;;9.26;93.62;99141.31;1708537;83;21548;-42
2022/01/02 09:21:21;;;;;;;19.67;12.05;;;;;;;9.32;93.37;99129.65;1708378;84;21015;-41
2022/01/02 09:23:47;;;;;;;22.10;11.88;;;;;;;9.34;92.93;99125.16;1708316;84;21048;-41
2022/01/02 09:26:13;;;;;;;27.22;12.82;;;;;;;9.32;92.76;99115.22;1708595;83;21005;-41
2022/01/02 09:28:40;;;;;;;22.77;12.53;;;;;;;9.36;93.15;99104.93;1708416;84;21007;-41
2022/01/02 09:31:06;;;;;;;24.82;12.07;;;;;;;9.43;92.70;99103.67;1708536;84;20968;-40
2022/01/02 09:33:33;;;;;;;26.10;11.78;;;;;;;9.54;92.74;99092.13;1708407;84;21002;-42
2022/01/02 09:35:59;;;;;;;22.13;12.15;;;;;;;9.54;92.25;99093.91;1708401;84;21533;-41
2022/01/02 09:38:25;;;;;;;24.70;11.88;;;;;;;9.54;91.67;99084.25;1708317;84;21011;-41
2022/01/02 09:40:51;;;;;;;22.77;11.38;;;;;;;9.48;91.26;99075.85;1708643;83;20984;-41
2022/01/02 09:43:18;;;;;;;22.87;11.57;;;;;;;9.41;90.65;99067.48;1708286;84;21024;-40
2022/01/02 09:45:49;;;;;;;26.50;10.77;;;;;;;9.48;90.64;99064.04;1708694;83;21514;-42
2022/01/02 09:48:15;;;;;;;21.70;10.68;;;;;;;9.48;90.63;99068.84;1708417;84;21532;-41
2022/01/02 09:50:41;;;;;;;23.12;10.53;;;;;;;9.48;90.48;99080.66;1708344;83;20972;-42
2022/01/02 09:53:08;;;;;;;21.57;11.00;;;;;;;9.53;90.20;99071.20;1708352;84;20988;-41
2022/01/02 09:55:34;;;;;;;19.75;10.78;;;;;;;9.56;90.25;99066.63;1708491;84;21051;-41
2022/01/02 09:58:03;;;;;;;19.75;10.82;;;;;;;9.57;90.50;99059.16;1708360;84;21006;-41
2022/01/02 10:00:28;;;;;;;20.82;10.95;;;;;;;9.54;89.80;99060.62;1708843;83;21019;-41
2022/01/02 10:03:01;;;;;;;18.42;9.93;;;;;;;9.50;89.45;99059.11;1708179;84;21023;-41
2022/01/02 10:05:30;;;;;;;17.17;9.83;;;;;;;9.50;89.10;99053.86;1708481;84;21020;-41
2022/01/02 10:07:57;;;;;;;18.55;9.45;;;;;;;9.53;88.71;99048.45;1705657;84;21003;-40
2022/01/02 10:10:33;;;;;;;19.48;9.65;;;;;;;9.57;89.08;99060.47;1708693;84;21051;-41
2022/01/02 10:13:03;;;;;;;18.05;10.08;;;;;;;9.55;88.75;99047.02;1708575;84;21024;-41
2022/01/02 10:15:31;;;;;;;17.98;9.00;;;;;;;9.58;88.45;99043.77;1708665;84;21646;-41
2022/01/02 10:18:05;;;;;;;17.40;9.48;;;;;;;9.57;88.06;99034.21;1708474;83;21007;-40
2022/01/02 10:20:39;;;;;;;15.88;8.40;;;;;;;9.60;88.41;99023.55;1708510;84;21011;-40
2022/01/02 10:23:18;;;;;;;21.60;8.90;;;;;;;9.64;88.08;99028.16;1708519;84;21003;-41
2022/01/02 10:25:56;;;;;;;14.43;7.55;;;;;;;9.63;87.59;99023.84;1708557;84;21003;-41
2022/01/02 10:28:33;;;;;;;18.75;8.48;;;;;;;9.65;87.24;99023.28;1708430;84;21015;-41
2022/01/02 10:31:10;;;;;;;13.15;7.87;;;;;;;9.66;87.68;99017.55;1708752;84;20999;-40
2022/01/02 10:34:01;;;;;;;19.00;8.78;;;;;;;9.66;87.18;99009.23;1708634;84;21004;-40
2022/01/02 10:36:33;;;;;;;20.77;9.33;;;;;;;9.71;87.73;98993.20;1708477;84;21063;-41
2022/01/02 10:39:15;;;;;;;19.20;8.93;;;;;;;9.72;87.35;98993.59;1708485;84;21000;-40
2022/01/02 10:41:48;;;;;;;17.73;8.60;;;;;;;9.73;87.22;98998.77;1708482;84;20979;-40
2022/01/02 10:44:31;;;;;;;15.65;8.63;;;;;;;9.74;86.78;98994.35;1708715;83;21036;-42
2022/01/02 10:47:21;;;;;;;17.80;8.40;;;;;;;9.76;86.57;98993.80;1703935;83;20968;-43
2022/01/02 10:50:03;;;;;;;19.35;7.90;;;;;;;9.76;86.34;98981.98;1708473;84;21047;-41
2022/01/02 10:52:40;;;;;;;14.50;8.45;;;;;;;9.73;85.99;98987.39;1708471;84;21208;-41
2022/01/02 10:55:28;;;;;;;16.53;8.40;;;;;;;9.74;86.36;98976.81;1708839;83;21019;-41
2022/01/02 10:57:56;;;;;;;20.20;8.20;;;;;;;9.78;85.89;98975.69;1708513;84;21296;-41
2022/01/02 11:00:25;;;;;;;16.95;7.97;;;;;;;9.79;85.42;98971.31;1708537;84;21007;-41
2022/01/02 11:02:52;;;;;;;20.05;8.28;;;;;;;9.86;85.82;98968.71;1708491;84;21019;-42
2022/01/02 11:05:21;;;;;;;15.68;8.13;;;;;;;9.83;85.22;98969.35;1708523;84;21006;-42
2022/01/02 11:07:50;;;;;;;15.30;8.08;;;;;;;9.90;85.48;98966.28;1708405;84;21528;-41
2022/01/02 11:10:20;;;;;;;12.50;7.85;;;;;;;9.91;85.12;98961.39;1708479;84;21023;-41
2022/01/02 11:12:48;;;;;;;18.95;8.10;;;;;;;9.94;85.13;98950.71;1708518;84;21520;-42
2022/01/02 11:15:18;;;;;;;15.65;8.23;;;;;;;9.92;84.83;98934.67;1708668;84;20999;-41
2022/01/02 11:17:45;;;;;;;19.75;8.73;;;;;;;9.95;85.30;98935.79;1707969;83;20968;-41
2022/01/02 11:20:18;;;;;;;15.23;8.35;;;;;;;10.05;85.64;98936.95;1708431;84;21504;-42
2022/01/02 11:23:15;;;;;;;16.93;8.23;;;;;;;10.07;84.67;98946.90;1708506;84;21513;-40
2022/01/02 11:25:52;;;;;;;16.52;7.47;;;;;;;10.14;85.10;98943.45;1708437;84;21003;-41
2022/01/02 11:28:48;;;;;;;15.75;7.22;;;;;;;10.18;84.35;98935.76;1708612;84;21028;-41
2022/01/02 11:31:34;;;;;;;15.80;8.13;;;;;;;10.25;84.45;98931.83;1708562;84;20961;-41
2022/01/02 11:34:01;;;;;;;11.78;6.90;;;;;;;10.24;84.05;98925.34;1707739;83;21539;-42
2022/01/02 11:36:34;;;;;;;13.25;6.60;;;;;;;10.21;83.99;98928.18;1708278;84;21043;-41
2022/01/02 11:39:09;;;;;;;12.47;6.70;;;;;;;10.11;83.74;98928.70;1708417;83;20988;-43
2022/01/02 11:41:43;;;;;;;10.53;6.47;;;;;;;10.11;84.55;98919.98;1708518;84;21597;-41
2022/01/02 11:44:15;;;;;;;13.18;6.65;;;;;;;10.11;84.05;98911.62;1708422;83;20988;-41